Time;durP1;ratioP1;P1;durP2;ratioP2;P2;SDS_P1;SDS_P2;PMS_P1;PMS_P2;Temp;Humidity;BMP_temperature;BMP_pressure;BME280_temperature;BME280_humidity;BME280_pressure;Samples;Min_cycle;Max_cycle;Signal;HPM_P1;HPM_P2
2021/03/08 00:00:32;;;;;;;19.10;13.87;;;7.20;45.40;;;;;;5069539;28;20336;-42
2021/03/08 00:02:59;;;;;;;18.73;13.33;;;7.20;45.70;;;;;;5070853;28;20216;-42
2021/03/08 00:05:25;;;;;;;19.63;14.20;;;7.10;46.00;;;;;;5070321;28;20433;-43
2021/03/08 00:07:50;;;;;;;18.40;13.53;;;7.10;46.30;;;;;;5070920;28;20800;-42
2021/03/08 00:10:18;;;;;;;17.80;13.23;;;7.20;46.50;;;;;;5070157;28;20430;-41
2021/03/08 00:12:45;;;;;;;20.93;13.17;;;7.00;46.50;;;;;;5070426;28;20211;-42
2021/03/08 00:15:12;;;;;;;17.87;13.67;;;7.00;46.50;;;;;;5070792;28;20434;-41
2021/03/08 00:17:38;;;;;;;17.90;12.50;;;7.10;46.60;;;;;;5070863;28;20472;-42
2021/03/08 00:20:08;;;;;;;16.03;12.20;;;7.10;46.50;;;;;;5070152;28;21006;-42
2021/03/08 00:22:33;;;;;;;17.40;13.57;;;7.10;46.40;;;;;;5071005;28;21035;-42
2021/03/08 00:24:59;;;;;;;13.73;11.17;;;7.10;46.40;;;;;;5073587;28;20514;-42
2021/03/08 00:27:25;;;;;;;15.47;12.03;;;7.10;46.10;;;;;;5073789;28;20220;-42
2021/03/08 00:29:50;;;;;;;16.83;12.40;;;7.10;46.00;;;;;;5073342;28;20339;-42
2021/03/08 00:32:16;;;;;;;20.53;13.50;;;7.00;45.90;;;;;;5074887;28;20196;-41
2021/03/08 00:34:41;;;;;;;17.00;12.80;;;6.90;45.90;;;;;;5073274;28;20196;-41
2021/03/08 00:37:07;;;;;;;19.63;12.60;;;6.80;46.10;;;;;;5074290;28;20230;-42
2021/03/08 00:39:33;;;;;;;19.03;13.43;;;6.70;46.20;;;;;;5073500;28;20479;-42
2021/03/08 00:41:59;;;;;;;17.90;13.87;;;6.70;46.30;;;;;;5074155;28;20188;-42
2021/03/08 00:44:25;;;;;;;21.00;14.17;;;6.70;46.30;;;;;;5068745;28;20193;-42
2021/03/08 00:46:51;;;;;;;19.03;15.13;;;6.60;46.40;;;;;;5074168;28;20429;-42
2021/03/08 00:49:16;;;;;;;16.23;13.03;;;6.60;46.60;;;;;;5075010;28;20425;-42
2021/03/08 00:51:42;;;;;;;17.70;13.90;;;6.60;46.60;;;;;;5071240;28;20188;-42
2021/03/08 00:54:07;;;;;;;22.80;13.80;;;6.60;46.70;;;;;;5073640;28;20218;-42
2021/03/08 00:56:33;;;;;;;17.77;13.77;;;6.60;46.70;;;;;;5073859;28;20199;-42
2021/03/08 00:58:59;;;;;;;18.60;13.33;;;6.50;46.60;;;;;;5073033;28;20195;-41
2021/03/08 01:01:24;;;;;;;18.30;12.40;;;6.50;46.70;;;;;;5072836;28;20224;-42
2021/03/08 01:03:50;;;;;;;30.80;14.50;;;6.50;47.10;;;;;;5073365;28;20441;-41
2021/03/08 01:06:16;;;;;;;21.00;13.53;;;6.50;47.30;;;;;;5073084;28;20548;-41
2021/03/08 01:08:41;;;;;;;18.63;13.60;;;6.30;47.20;;;;;;5074296;28;20199;-41
2021/03/08 01:11:07;;;;;;;17.63;13.10;;;6.40;47.10;;;;;;5072822;28;20192;-42
2021/03/08 01:13:33;;;;;;;19.40;12.70;;;6.30;46.80;;;;;;5073861;28;20192;-41
2021/03/08 01:15:58;;;;;;;19.90;14.40;;;6.30;46.90;;;;;;5072816;28;20554;-42
2021/03/08 01:18:24;;;;;;;20.20;13.53;;;6.30;47.10;;;;;;5072005;28;20196;-42
2021/03/08 01:20:49;;;;;;;20.33;12.83;;;6.10;47.20;;;;;;5055933;28;20251;-42
2021/03/08 01:23:15;;;;;;;21.90;13.63;;;6.10;47.20;;;;;;5070731;28;20651;-41
2021/03/08 01:25:41;;;;;;;19.50;15.27;;;6.10;47.60;;;;;;5073476;28;20558;-42
2021/03/08 01:28:07;;;;;;;19.47;13.83;;;6.10;47.40;;;;;;5071751;28;20249;-42
2021/03/08 01:30:36;;;;;;;16.63;12.77;;;6.10;47.10;;;;;;5072484;28;20520;-41
2021/03/08 01:33:03;;;;;;;18.60;12.57;;;6.00;47.10;;;;;;5071867;28;20437;-42
2021/03/08 01:35:29;;;;;;;20.83;13.53;;;6.00;46.90;;;;;;5072465;28;20426;-42
2021/03/08 01:37:54;;;;;;;18.50;13.30;;;5.90;46.90;;;;;;5072865;28;20456;-41
2021/03/08 01:40:23;;;;;;;15.13;12.97;;;5.90;47.20;;;;;;5073089;28;20511;-42
2021/03/08 01:42:49;;;;;;;19.47;13.90;;;5.90;47.00;;;;;;5072804;28;20198;-42
2021/03/08 01:45:17;;;;;;;17.57;13.03;;;5.90;46.70;;;;;;5072052;28;20435;-41
2021/03/08 01:47:44;;;;;;;18.17;12.73;;;5.90;46.80;;;;;;5071801;28;20622;-41
2021/03/08 01:50:36;;;;;;;16.97;12.97;;;5.90;47.10;;;;;;5072942;28;20418;-42
2021/03/08 01:53:03;;;;;;;19.53;13.90;;;5.90;47.00;;;;;;5072789;28;20426;-41
2021/03/08 01:55:29;;;;;;;20.33;13.40;;;5.90;47.10;;;;;;5072317;28;20842;-41
2021/03/08 01:57:55;;;;;;;18.90;13.77;;;5.80;47.10;;;;;;5072479;28;20438;-41
2021/03/08 02:00:24;;;;;;;20.50;13.80;;;5.80;47.30;;;;;;5072030;28;20526;-41
2021/03/08 02:02:50;;;;;;;16.90;13.80;;;5.70;47.50;;;;;;5072099;28;20652;-41
2021/03/08 02:05:18;;;;;;;19.90;13.63;;;5.70;47.60;;;;;;5070481;28;20441;-41
2021/03/08 02:07:44;;;;;;;18.50;13.50;;;5.80;47.60;;;;;;5065469;28;20499;-41
2021/03/08 02:10:14;;;;;;;21.50;14.70;;;5.70;47.70;;;;;;5065305;28;20476;-42
2021/03/08 02:12:59;;;;;;;20.37;12.73;;;5.40;48.50;;;;;;5058388;28;20438;-42
2021/03/08 02:15:34;;;;;;;19.23;12.80;;;5.40;48.40;;;;;;5074287;28;20469;-42
2021/03/08 02:18:35;;;;;;;18.97;13.20;;;5.50;48.10;;;;;;5072645;28;20446;-42
2021/03/08 02:21:34;;;;;;;20.40;14.57;;;5.50;48.00;;;;;;4986666;28;20489;-42
2021/03/08 02:24:25;;;;;;;18.63;12.93;;;5.60;48.00;;;;;;5070927;28;20456;-42
2021/03/08 02:26:58;;;;;;;20.90;13.67;;;5.60;48.00;;;;;;5072193;28;20519;-42
2021/03/08 02:30:08;;;;;;;16.67;13.03;;;5.60;47.60;;;;;;5071176;28;20434;-42
2021/03/08 02:32:40;;;;;;;19.80;11.73;;;5.60;47.30;;;;;;5004617;28;20511;-42
2021/03/08 02:35:13;;;;;;;18.17;13.50;;;5.60;47.40;;;;;;5008608;28;20444;-42
2021/03/08 02:37:52;;;;;;;16.73;12.83;;;5.60;47.50;;;;;;5035941;28;20450;-41
2021/03/08 02:40:24;;;;;;;21.17;13.23;;;5.60;47.40;;;;;;5071307;28;20842;-42
2021/03/08 02:42:55;;;;;;;15.60;11.77;;;5.60;47.30;;;;;;5070612;28;20426;-42
2021/03/08 02:45:25;;;;;;;19.13;12.20;;;5.50;47.20;;;;;;5071286;28;20433;-41
2021/03/08 02:47:52;;;;;;;15.63;11.90;;;5.50;48.10;;;;;;5072899;28;20923;-42
2021/03/08 02:50:23;;;;;;;15.80;11.73;;;5.50;47.60;;;;;;5071270;28;20441;-41
2021/03/08 02:52:56;;;;;;;19.77;13.07;;;5.40;47.70;;;;;;5071905;28;20422;-41
2021/03/08 02:55:40;;;;;;;19.07;12.80;;;5.30;47.40;;;;;;5071094;28;20430;-42
2021/03/08 02:58:09;;;;;;;15.87;11.77;;;5.30;47.30;;;;;;5053559;28;20853;-42
2021/03/08 03:00:36;;;;;;;17.20;12.10;;;5.30;47.40;;;;;;5065461;28;20482;-42
2021/03/08 03:03:05;;;;;;;15.20;11.90;;;5.30;47.50;;;;;;5071136;28;20438;-42
2021/03/08 03:05:31;;;;;;;17.57;12.47;;;5.30;47.80;;;;;;5072729;28;20530;-41
2021/03/08 03:08:00;;;;;;;17.33;12.10;;;5.20;47.90;;;;;;5071409;28;20426;-41
2021/03/08 03:10:28;;;;;;;16.20;11.87;;;5.20;47.70;;;;;;5069223;28;21554;-41
2021/03/08 03:12:56;;;;;;;17.00;12.47;;;5.30;47.60;;;;;;5071250;28;20488;-41
2021/03/08 03:15:22;;;;;;;18.40;12.60;;;5.20;47.40;;;;;;5071231;28;20461;-41
2021/03/08 03:17:50;;;;;;;20.07;12.97;;;5.10;47.20;;;;;;5070824;28;20434;-41
2021/03/08 03:20:16;;;;;;;17.23;12.40;;;5.10;47.00;;;;;;5070979;28;20527;-41
2021/03/08 03:22:45;;;;;;;16.30;12.17;;;5.00;47.00;;;;;;5071015;28;21001;-41
2021/03/08 03:25:16;;;;;;;18.00;12.07;;;5.00;47.30;;;;;;5070620;28;21001;-41
2021/03/08 03:27:44;;;;;;;16.53;11.80;;;5.00;47.60;;;;;;5071622;28;20805;-41
2021/03/08 03:30:10;;;;;;;17.87;12.63;;;5.00;47.80;;;;;;5070100;28;20466;-42
2021/03/08 03:32:37;;;;;;;14.27;11.80;;;5.00;47.80;;;;;;5070855;28;20433;-41
2021/03/08 03:35:04;;;;;;;15.10;11.83;;;5.00;47.80;;;;;;5070262;28;20487;-42
2021/03/08 03:37:31;;;;;;;25.47;13.47;;;4.90;47.90;;;;;;5069969;28;20434;-41
2021/03/08 03:39:56;;;;;;;17.10;11.43;;;4.90;48.20;;;;;;5071025;28;20462;-42
2021/03/08 03:42:22;;;;;;;15.60;11.23;;;4.80;48.50;;;;;;5070729;28;20529;-41
2021/03/08 03:44:47;;;;;;;21.40;12.90;;;4.80;48.30;;;;;;5069061;28;20195;-42
2021/03/08 03:47:14;;;;;;;18.90;12.43;;;4.90;47.90;;;;;;5064042;28;20251;-41
2021/03/08 03:49:40;;;;;;;19.63;12.77;;;4.80;47.60;;;;;;5070376;28;20191;-42
2021/03/08 03:52:07;;;;;;;18.93;12.60;;;4.80;48.10;;;;;;5070429;28;20921;-41
2021/03/08 03:54:32;;;;;;;17.93;12.70;;;4.80;47.50;;;;;;5071373;28;20202;-41
2021/03/08 03:57:02;;;;;;;16.40;12.30;;;4.70;47.40;;;;;;5073265;28;20917;-42
2021/03/08 03:59:48;;;;;;;19.07;13.73;;;4.70;47.60;;;;;;5073904;28;20644;-41
2021/03/08 04:02:28;;;;;;;19.07;13.37;;;4.60;47.90;;;;;;5069970;28;20449;-41
2021/03/08 04:05:02;;;;;;;17.40;12.70;;;4.70;48.20;;;;;;5068134;28;20444;-41
2021/03/08 04:07:32;;;;;;;20.47;12.93;;;4.60;48.40;;;;;;5074346;28;20956;-42
2021/03/08 04:09:59;;;;;;;22.63;13.40;;;4.60;48.20;;;;;;5056372;28;20441;-41
2021/03/08 04:12:29;;;;;;;17.97;12.50;;;4.60;48.00;;;;;;5074222;28;20464;-41
2021/03/08 04:14:59;;;;;;;17.53;11.90;;;4.50;47.50;;;;;;5067131;28;20468;-41
2021/03/08 04:17:27;;;;;;;19.73;12.27;;;4.50;47.30;;;;;;5074228;28;20469;-42
2021/03/08 04:19:55;;;;;;;17.30;12.40;;;4.50;47.40;;;;;;5073861;28;20464;-41
2021/03/08 04:22:25;;;;;;;18.30;13.00;;;4.60;47.30;;;;;;5074432;28;20427;-42
2021/03/08 04:24:55;;;;;;;17.97;12.33;;;4.50;47.90;;;;;;5073727;28;21029;-41
2021/03/08 04:27:23;;;;;;;16.73;11.80;;;4.50;48.10;;;;;;5072932;28;20537;-41
2021/03/08 04:29:49;;;;;;;18.93;11.57;;;4.50;48.10;;;;;;5079325;28;20469;-41
2021/03/08 04:32:18;;;;;;;17.97;11.40;;;4.60;48.00;;;;;;5072893;28;20416;-42
2021/03/08 04:34:45;;;;;;;16.73;11.87;;;4.50;48.00;;;;;;5073647;28;20434;-41
2021/03/08 04:37:15;;;;;;;17.50;11.50;;;4.40;47.90;;;;;;5073316;28;20469;-41
2021/03/08 04:39:42;;;;;;;16.77;11.97;;;4.40;48.10;;;;;;5073039;28;20426;-41
2021/03/08 04:42:09;;;;;;;18.17;12.27;;;4.30;48.20;;;;;;5074141;28;20458;-41
2021/03/08 04:44:35;;;;;;;13.97;11.37;;;4.30;48.50;;;;;;5073441;28;20496;-41
2021/03/08 04:47:03;;;;;;;26.07;17.27;;;4.30;48.10;;;;;;5076101;28;20462;-41
2021/03/08 04:49:30;;;;;;;26.80;16.03;;;4.30;47.50;;;;;;5072988;28;20442;-42
2021/03/08 04:51:57;;;;;;;21.53;14.50;;;4.30;47.20;;;;;;5065869;28;21820;-41
2021/03/08 04:54:24;;;;;;;19.10;12.73;;;4.30;47.10;;;;;;5069790;28;20465;-41
2021/03/08 04:56:52;;;;;;;16.33;11.47;;;4.20;47.10;;;;;;5073994;28;20480;-41
2021/03/08 04:59:17;;;;;;;16.83;12.70;;;4.20;47.10;;;;;;5072300;28;20461;-41
2021/03/08 05:01:45;;;;;;;24.50;16.63;;;4.10;47.00;;;;;;5073479;28;20544;-42
2021/03/08 05:04:11;;;;;;;20.43;15.37;;;4.10;47.10;;;;;;5074099;28;20223;-41
2021/03/08 05:06:39;;;;;;;22.60;15.20;;;4.00;47.70;;;;;;5073431;28;20435;-41
2021/03/08 05:09:07;;;;;;;21.23;15.00;;;4.00;48.20;;;;;;5072092;28;20426;-41
2021/03/08 05:11:34;;;;;;;19.43;13.53;;;3.90;48.50;;;;;;5072789;28;20952;-41
2021/03/08 05:14:04;;;;;;;17.63;12.47;;;3.90;49.00;;;;;;5072958;28;20431;-41
2021/03/08 05:16:31;;;;;;;18.63;12.60;;;3.90;48.90;;;;;;5073100;28;20437;-41
2021/03/08 05:18:59;;;;;;;17.60;12.83;;;3.90;48.60;;;;;;5073003;28;20442;-41
2021/03/08 05:21:27;;;;;;;17.97;12.30;;;3.90;48.90;;;;;;5072979;28;21230;-42
2021/03/08 05:23:53;;;;;;;17.70;13.00;;;3.80;48.80;;;;;;5073185;28;20459;-41
2021/03/08 05:26:19;;;;;;;20.97;12.70;;;3.90;48.70;;;;;;5069939;28;20523;-41
2021/03/08 05:28:44;;;;;;;17.93;12.07;;;3.80;48.80;;;;;;5072444;28;20529;-41
2021/03/08 05:31:12;;;;;;;17.20;11.53;;;3.80;48.90;;;;;;5073103;28;21044;-41
2021/03/08 05:33:38;;;;;;;21.07;13.10;;;3.80;48.90;;;;;;5071318;28;20195;-41
2021/03/08 05:36:07;;;;;;;20.17;12.83;;;3.70;48.70;;;;;;5072963;28;20426;-41
2021/03/08 05:38:34;;;;;;;14.93;10.80;;;3.80;48.40;;;;;;5073557;28;20484;-42
2021/03/08 05:41:21;;;;;;;19.67;13.00;;;3.80;48.40;;;;;;5072614;28;20477;-41
2021/03/08 05:43:48;;;;;;;14.53;10.97;;;3.80;48.60;;;;;;5064442;28;20526;-42
2021/03/08 05:46:24;;;;;;;17.20;12.80;;;3.80;48.70;;;;;;5072246;28;21000;-41
2021/03/08 05:49:06;;;;;;;17.57;12.30;;;3.80;48.60;;;;;;5073115;28;20465;-41
2021/03/08 05:51:55;;;;;;;18.90;13.07;;;3.80;48.30;;;;;;5071864;28;20441;-42
2021/03/08 05:54:53;;;;;;;16.60;12.50;;;3.90;49.10;;;;;;5069258;28;20442;-42
2021/03/08 05:57:56;;;;;;;19.17;13.20;;;4.40;49.00;;;;;;5072733;28;20861;-42
2021/03/08 06:00:40;;;;;;;18.97;12.57;;;5.00;49.20;;;;;;5071864;28;20489;-41
2021/03/08 06:03:32;;;;;;;19.17;13.13;;;5.40;48.70;;;;;;5072146;28;20442;-42
2021/03/08 06:06:27;;;;;;;18.63;11.93;;;5.70;47.60;;;;;;5072057;28;20435;-42
2021/03/08 06:09:19;;;;;;;19.13;12.77;;;6.00;46.90;;;;;;5072129;28;20438;-42
2021/03/08 06:11:59;;;;;;;19.90;15.40;;;6.00;46.40;;;;;;5068954;28;20468;-42
2021/03/08 06:14:43;;;;;;;22.37;14.53;;;6.20;46.00;;;;;;5068709;28;20434;-42
2021/03/08 06:17:12;;;;;;;23.63;15.57;;;6.30;44.80;;;;;;5072456;28;20794;-41
2021/03/08 06:19:38;;;;;;;18.40;13.73;;;6.40;44.30;;;;;;5053024;28;20521;-42
2021/03/08 06:22:08;;;;;;;20.30;14.43;;;6.40;43.90;;;;;;5069772;28;20885;-42
2021/03/08 06:24:40;;;;;;;20.53;14.50;;;6.40;43.50;;;;;;5053454;28;20844;-42
2021/03/08 06:27:10;;;;;;;20.77;14.37;;;6.40;43.50;;;;;;5071803;28;20548;-42
2021/03/08 06:29:37;;;;;;;20.43;15.87;;;6.40;43.50;;;;;;5064518;28;20434;-42
2021/03/08 06:32:04;;;;;;;30.30;19.63;;;6.30;43.70;;;;;;5071155;28;20440;-42
2021/03/08 06:34:31;;;;;;;28.00;18.23;;;6.30;44.00;;;;;;5071379;28;20437;-42
2021/03/08 06:37:01;;;;;;;24.73;17.77;;;6.30;44.30;;;;;;5072314;28;20467;-42
2021/03/08 06:39:27;;;;;;;25.83;15.87;;;6.30;44.40;;;;;;5071930;28;20462;-41
2021/03/08 06:41:53;;;;;;;26.50;15.80;;;6.40;44.90;;;;;;5071385;28;20520;-42
2021/03/08 06:44:19;;;;;;;25.40;17.57;;;6.50;45.40;;;;;;5071740;28;20183;-42
2021/03/08 06:46:45;;;;;;;20.27;13.83;;;6.70;45.40;;;;;;5071464;28;20255;-42
2021/03/08 06:49:10;;;;;;;20.43;15.43;;;7.00;45.30;;;;;;5069633;28;20430;-42
2021/03/08 06:51:56;;;;;;;20.90;14.30;;;7.30;45.40;;;;;;5069210;28;20427;-42
2021/03/08 06:54:21;;;;;;;19.83;14.77;;;7.60;44.40;;;;;;5070291;28;20196;-42
2021/03/08 06:56:47;;;;;;;19.03;13.37;;;7.90;43.60;;;;;;5070262;28;20929;-43
2021/03/08 06:59:13;;;;;;;20.10;13.90;;;8.10;43.10;;;;;;5071033;28;20277;-43
2021/03/08 07:01:40;;;;;;;18.20;13.70;;;8.30;42.70;;;;;;5066998;28;20234;-43
2021/03/08 07:04:24;;;;;;;18.70;13.47;;;8.60;42.40;;;;;;5071275;28;20441;-43
2021/03/08 07:07:07;;;;;;;19.90;15.30;;;8.80;41.80;;;;;;5071806;28;21011;-43
2021/03/08 07:09:46;;;;;;;19.33;14.87;;;9.00;41.40;;;;;;5070519;28;20445;-43
2021/03/08 07:12:13;;;;;;;21.53;17.10;;;9.20;40.90;;;;;;5071121;28;20437;-43
2021/03/08 07:14:40;;;;;;;20.03;14.43;;;9.40;41.20;;;;;;5071044;28;20808;-43
2021/03/08 07:17:37;;;;;;;23.30;14.70;;;9.50;40.50;;;;;;5070071;28;20529;-44
2021/03/08 07:20:07;;;;;;;20.43;14.23;;;9.70;40.30;;;;;;5070415;28;20486;-43
2021/03/08 07:22:37;;;;;;;17.67;13.97;;;9.90;40.20;;;;;;5071204;28;20450;-43
2021/03/08 07:25:05;;;;;;;19.13;14.40;;;10.10;39.40;;;;;;5070891;28;20430;-43
2021/03/08 07:27:45;;;;;;;20.70;14.37;;;10.30;39.30;;;;;;5070938;28;20998;-43
2021/03/08 07:30:13;;;;;;;18.37;14.30;;;10.40;39.00;;;;;;5070674;28;20556;-43
2021/03/08 07:32:59;;;;;;;17.60;14.60;;;10.60;39.00;;;;;;5070226;28;21067;-43
2021/03/08 07:35:35;;;;;;;22.40;15.80;;;10.70;39.00;;;;;;5060151;28;20471;-43
2021/03/08 07:38:01;;;;;;;23.30;16.00;;;10.90;39.30;;;;;;5067653;28;20458;-43
2021/03/08 07:40:27;;;;;;;22.83;15.67;;;10.90;39.40;;;;;;5070786;28;20908;-43
2021/03/08 07:42:53;;;;;;;20.80;15.30;;;11.00;39.30;;;;;;5061760;28;20493;-43
2021/03/08 07:45:20;;;;;;;22.30;18.13;;;11.10;38.90;;;;;;5069012;28;20801;-43
2021/03/08 07:47:46;;;;;;;21.20;15.93;;;11.10;39.10;;;;;;5071420;28;20852;-43
2021/03/08 07:50:38;;;;;;;23.50;18.67;;;11.10;39.50;;;;;;5064813;28;20426;-43
2021/03/08 07:53:21;;;;;;;29.50;18.80;;;11.20;39.20;;;;;;5066112;28;20499;-43
2021/03/08 07:55:48;;;;;;;25.80;19.50;;;11.30;39.00;;;;;;5070149;28;20441;-44
2021/03/08 07:58:15;;;;;;;21.33;16.53;;;11.40;38.90;;;;;;5064656;28;20441;-43
2021/03/08 08:00:41;;;;;;;24.10;16.17;;;11.40;38.50;;;;;;5069789;28;20517;-43
2021/03/08 08:03:07;;;;;;;19.03;16.97;;;11.40;38.30;;;;;;5071698;28;20465;-43
2021/03/08 08:05:32;;;;;;;18.70;15.90;;;11.30;38.20;;;;;;5069208;28;20200;-43
2021/03/08 08:08:00;;;;;;;19.97;15.77;;;11.40;38.50;;;;;;5070544;28;20628;-43
2021/03/08 08:10:26;;;;;;;20.30;15.70;;;11.30;38.40;;;;;;5068091;28;20206;-44
2021/03/08 08:12:54;;;;;;;24.90;16.83;;;11.30;38.60;;;;;;5069775;28;20985;-43
2021/03/08 08:15:23;;;;;;;18.50;15.23;;;11.30;38.90;;;;;;5065393;28;20537;-43
2021/03/08 08:17:53;;;;;;;16.67;14.00;;;11.30;38.70;;;;;;5068438;28;20488;-43
2021/03/08 08:20:19;;;;;;;19.90;15.30;;;11.30;38.80;;;;;;5069955;28;20494;-43
2021/03/08 08:23:02;;;;;;;20.77;15.80;;;11.00;38.70;;;;;;5068735;28;20441;-44
2021/03/08 08:25:29;;;;;;;22.97;15.90;;;10.80;39.20;;;;;;5067677;28;20191;-44
2021/03/08 08:27:55;;;;;;;21.70;15.50;;;10.70;39.60;;;;;;5069361;28;20441;-43
2021/03/08 08:30:25;;;;;;;17.90;15.57;;;10.80;39.90;;;;;;5068835;28;20466;-43
2021/03/08 08:32:52;;;;;;;20.50;15.67;;;10.60;39.90;;;;;;5068701;28;20643;-44
2021/03/08 08:35:20;;;;;;;21.53;15.47;;;10.70;39.60;;;;;;5070420;28;20450;-43
2021/03/08 08:38:05;;;;;;;20.00;15.30;;;10.70;39.80;;;;;;5069037;28;20505;-43
2021/03/08 08:40:30;;;;;;;17.80;14.23;;;10.70;39.70;;;;;;5069060;28;20477;-43
2021/03/08 08:43:14;;;;;;;20.00;15.80;;;10.70;40.30;;;;;;5071797;28;20422;-43
2021/03/08 08:45:40;;;;;;;20.20;15.07;;;10.70;40.00;;;;;;5073544;28;20251;-43
2021/03/08 08:48:06;;;;;;;18.70;15.07;;;10.90;40.80;;;;;;5074626;28;20422;-43
2021/03/08 08:50:51;;;;;;;18.23;15.27;;;10.80;39.80;;;;;;5073442;28;20576;-43
2021/03/08 08:53:35;;;;;;;17.10;14.20;;;10.80;40.10;;;;;;5074440;28;20438;-43
2021/03/08 08:56:01;;;;;;;18.57;14.47;;;10.80;40.00;;;;;;5073573;28;20441;-43
2021/03/08 08:58:40;;;;;;;18.07;14.03;;;10.80;40.40;;;;;;5074410;28;20434;-43
2021/03/08 09:01:16;;;;;;;20.40;14.70;;;10.80;40.30;;;;;;5072899;28;20602;-43
2021/03/08 09:04:08;;;;;;;18.80;13.40;;;10.70;39.60;;;;;;5074243;28;20960;-43
2021/03/08 09:06:46;;;;;;;17.37;14.97;;;10.50;40.40;;;;;;5071503;28;20890;-43
2021/03/08 09:09:14;;;;;;;16.70;14.40;;;10.50;40.40;;;;;;5074132;28;20515;-43
2021/03/08 09:11:51;;;;;;;18.13;14.37;;;10.70;40.20;;;;;;5072239;28;20446;-44
2021/03/08 09:14:41;;;;;;;17.27;14.57;;;10.90;40.00;;;;;;5073938;28;20434;-43
2021/03/08 09:17:15;;;;;;;20.60;14.40;;;11.00;39.40;;;;;;5072148;28;21341;-43
2021/03/08 09:19:42;;;;;;;15.97;14.10;;;11.20;39.10;;;;;;5073302;28;20468;-45
2021/03/08 09:22:20;;;;;;;20.07;14.37;;;11.30;39.40;;;;;;5073096;28;20441;-43
2021/03/08 09:24:47;;;;;;;17.70;14.20;;;11.50;38.70;;;;;;5073176;28;20442;-43
2021/03/08 09:27:31;;;;;;;18.97;14.07;;;11.60;38.40;;;;;;5072799;28;20838;-43
2021/03/08 09:30:05;;;;;;;18.80;14.27;;;11.70;37.90;;;;;;5071946;28;20505;-43
2021/03/08 09:32:32;;;;;;;17.43;13.43;;;11.70;37.80;;;;;;5070163;28;20460;-43
2021/03/08 09:35:03;;;;;;;18.50;13.10;;;11.80;38.20;;;;;;5073140;28;20458;-44
2021/03/08 09:37:30;;;;;;;15.50;13.17;;;11.80;37.90;;;;;;5070020;28;20530;-43
2021/03/08 09:39:57;;;;;;;16.93;14.30;;;11.90;37.40;;;;;;5072198;28;20469;-43
2021/03/08 09:42:23;;;;;;;15.63;12.70;;;11.70;37.60;;;;;;5072151;28;20434;-44
2021/03/08 09:44:49;;;;;;;14.77;12.63;;;11.50;38.10;;;;;;5071167;28;20445;-44
2021/03/08 09:47:16;;;;;;;15.80;13.20;;;11.90;37.90;;;;;;5072069;28;20508;-44
2021/03/08 09:50:00;;;;;;;16.20;13.70;;;12.00;37.60;;;;;;5072278;28;21117;-44
2021/03/08 09:52:37;;;;;;;14.10;12.60;;;12.00;37.00;;;;;;5071144;28;20791;-45
2021/03/08 09:55:05;;;;;;;16.60;14.00;;;12.20;37.40;;;;;;5070518;28;20453;-44
2021/03/08 09:57:38;;;;;;;15.30;13.10;;;12.60;37.10;;;;;;5071561;28;20802;-44
2021/03/08 10:00:08;;;;;;;20.37;13.23;;;12.80;36.70;;;;;;5070333;28;20484;-43
2021/03/08 10:02:34;;;;;;;14.90;13.30;;;12.90;36.00;;;;;;5071469;28;20521;-44
2021/03/08 10:05:00;;;;;;;15.70;13.03;;;12.90;36.20;;;;;;5071481;28;20874;-45
2021/03/08 10:07:26;;;;;;;17.23;14.13;;;12.90;36.50;;;;;;5071820;28;20708;-44
2021/03/08 10:10:10;;;;;;;14.80;13.15;;;13.10;36.60;;;;;;5070760;28;20420;-44
2021/03/08 10:12:36;;;;;;;15.67;13.97;;;13.20;36.30;;;;;;5071645;28;20192;-44
2021/03/08 10:15:03;;;;;;;16.20;12.93;;;13.40;35.30;;;;;;5070359;28;20916;-44
2021/03/08 10:17:28;;;;;;;14.27;12.87;;;13.70;35.50;;;;;;5071486;28;20430;-44
2021/03/08 10:19:59;;;;;;;15.67;12.43;;;13.80;35.80;;;;;;5065791;28;20430;-44
2021/03/08 10:22:43;;;;;;;13.83;12.43;;;13.90;35.00;;;;;;5070499;28;20611;-44
2021/03/08 10:25:34;;;;;;;13.87;12.20;;;14.00;35.00;;;;;;5070200;28;20449;-45
2021/03/08 10:28:04;;;;;;;17.13;13.47;;;14.00;34.30;;;;;;5068135;28;20450;-45
2021/03/08 10:30:34;;;;;;;14.73;12.33;;;14.20;35.00;;;;;;5075599;28;20481;-44
2021/03/08 10:33:18;;;;;;;13.57;12.17;;;14.20;34.90;;;;;;5075239;28;20434;-44
2021/03/08 10:35:46;;;;;;;14.10;12.60;;;14.20;34.00;;;;;;5073729;28;20819;-44
2021/03/08 10:38:14;;;;;;;14.03;12.57;;;14.20;34.80;;;;;;5073874;28;20538;-44
2021/03/08 10:40:41;;;;;;;13.90;11.87;;;14.20;34.40;;;;;;5070214;28;20869;-44
2021/03/08 10:43:08;;;;;;;14.03;12.47;;;14.10;34.10;;;;;;5071844;28;20427;-43
2021/03/08 10:45:34;;;;;;;14.20;12.10;;;13.80;34.50;;;;;;5070122;28;20430;-43
2021/03/08 10:48:18;;;;;;;11.50;10.30;;;14.10;34.90;;;;;;5057369;28;20453;-45
2021/03/08 10:50:51;;;;;;;12.73;11.40;;;14.60;33.10;;;;;;5067295;28;20430;-43
2021/03/08 10:53:21;;;;;;;11.57;10.47;;;14.60;33.10;;;;;;5070252;28;20453;-42
2021/03/08 10:55:48;;;;;;;12.90;11.70;;;14.80;33.90;;;;;;5063122;28;20798;-43
2021/03/08 10:58:15;;;;;;;11.73;10.53;;;15.00;32.10;;;;;;5069506;28;20434;-44
2021/03/08 11:00:42;;;;;;;13.50;12.10;;;15.10;31.90;;;;;;5069450;28;20489;-44
2021/03/08 11:03:34;;;;;;;11.40;10.30;;;15.10;32.10;;;;;;5070299;28;20857;-44
2021/03/08 11:06:04;;;;;;;11.73;10.37;;;15.10;32.70;;;;;;5068437;28;20471;-44
2021/03/08 11:08:30;;;;;;;11.23;10.00;;;15.20;32.20;;;;;;5065061;28;20797;-44
2021/03/08 11:10:56;;;;;;;12.77;11.57;;;15.30;31.60;;;;;;5064506;28;20447;-43
2021/03/08 11:13:31;;;;;;;13.87;10.80;;;15.30;31.70;;;;;;5069320;28;20418;-43
2021/03/08 11:16:07;;;;;;;11.40;10.30;;;15.50;32.00;;;;;;5069605;28;20179;-43
2021/03/08 11:18:32;;;;;;;16.43;10.53;;;15.70;31.00;;;;;;5066860;28;20851;-43
2021/03/08 11:21:19;;;;;;;13.60;12.07;;;15.90;30.90;;;;;;5068971;28;20485;-44
2021/03/08 11:23:45;;;;;;;13.70;11.70;;;16.10;31.50;;;;;;5068647;28;20233;-43
2021/03/08 11:26:11;;;;;;;11.90;10.80;;;16.10;30.20;;;;;;5070133;28;20418;-44
2021/03/08 11:28:41;;;;;;;12.60;11.10;;;16.00;30.30;;;;;;5069494;28;20202;-44
2021/03/08 11:31:21;;;;;;;13.60;12.23;;;15.90;30.20;;;;;;5067511;28;20224;-44
2021/03/08 11:33:50;;;;;;;13.80;11.80;;;16.00;30.00;;;;;;5069317;28;20442;-44
2021/03/08 11:36:27;;;;;;;15.77;11.33;;;15.90;30.20;;;;;;5069763;28;20489;-43
2021/03/08 11:38:52;;;;;;;15.30;11.73;;;16.00;30.40;;;;;;5070456;28;20429;-44
2021/03/08 11:41:18;;;;;;;12.10;10.90;;;15.90;31.00;;;;;;5068596;28;20531;-44
2021/03/08 11:43:43;;;;;;;17.57;12.07;;;16.10;31.50;;;;;;5070594;28;20200;-44
2021/03/08 11:46:09;;;;;;;12.37;11.07;;;16.20;30.00;;;;;;5070217;28;20542;-44
2021/03/08 11:48:35;;;;;;;14.90;11.50;;;15.90;29.60;;;;;;5070901;28;20210;-44
2021/03/08 11:51:00;;;;;;;12.37;11.17;;;16.00;29.80;;;;;;5067833;28;20651;-43
2021/03/08 11:53:26;;;;;;;12.80;11.50;;;15.80;29.80;;;;;;5069497;28;20269;-44
2021/03/08 11:55:51;;;;;;;12.40;11.07;;;15.80;30.60;;;;;;5069877;28;20265;-44
2021/03/08 11:58:20;;;;;;;13.67;11.63;;;15.90;31.40;;;;;;5071275;28;20199;-44
2021/03/08 12:00:46;;;;;;;12.43;11.20;;;16.00;31.60;;;;;;5069425;28;20220;-44
2021/03/08 12:03:11;;;;;;;11.50;10.30;;;16.20;30.20;;;;;;5069946;28;20830;-43
2021/03/08 12:05:37;;;;;;;14.07;10.93;;;16.30;29.90;;;;;;5069816;28;20191;-44
2021/03/08 12:08:02;;;;;;;12.63;10.10;;;16.60;29.70;;;;;;5070882;28;20902;-44
2021/03/08 12:10:28;;;;;;;11.60;10.40;;;16.50;29.10;;;;;;5069262;28;20188;-44
2021/03/08 12:12:53;;;;;;;11.37;10.17;;;16.50;29.50;;;;;;5070161;28;20631;-44
2021/03/08 12:15:19;;;;;;;12.00;10.90;;;16.50;29.20;;;;;;5066212;28;20188;-44
2021/03/08 12:17:45;;;;;;;11.90;10.63;;;16.40;29.30;;;;;;5070965;28;20227;-45
2021/03/08 12:20:11;;;;;;;10.70;9.67;;;16.50;29.40;;;;;;5072452;28;20216;-43
2021/03/08 12:22:40;;;;;;;15.30;10.33;;;16.60;29.50;;;;;;5072855;28;20206;-44
2021/03/08 12:25:08;;;;;;;10.77;9.77;;;16.50;29.20;;;;;;5070970;28;20532;-44
2021/03/08 12:27:34;;;;;;;9.93;9.07;;;16.60;29.00;;;;;;5069779;28;20496;-43
2021/03/08 12:29:59;;;;;;;10.80;9.57;;;16.80;28.90;;;;;;5069760;28;20469;-44
2021/03/08 12:32:25;;;;;;;9.93;8.93;;;17.00;29.20;;;;;;5073116;28;20437;-44
2021/03/08 12:34:50;;;;;;;11.30;10.20;;;17.10;28.40;;;;;;5070393;28;20188;-44
2021/03/08 12:37:17;;;;;;;10.33;9.33;;;17.30;27.50;;;;;;5073678;28;20657;-44
2021/03/08 12:39:42;;;;;;;8.83;7.80;;;17.40;27.70;;;;;;5072234;28;20611;-44
2021/03/08 12:42:08;;;;;;;11.93;7.33;;;17.40;28.50;;;;;;5068632;28;20477;-44
2021/03/08 12:44:34;;;;;;;9.10;8.20;;;17.50;28.10;;;;;;5064971;28;20200;-44
2021/03/08 12:46:59;;;;;;;9.30;8.40;;;17.60;27.40;;;;;;5070314;28;20475;-44
2021/03/08 12:49:25;;;;;;;10.07;9.07;;;17.50;26.20;;;;;;5068167;28;20241;-44